Time;durP1;ratioP1;P1;durP2;ratioP2;P2;SDS_P1;SDS_P2;PMS_P1;PMS_P2;Temp;Humidity;BMP_temperature;BMP_pressure;BME280_temperature;BME280_humidity;BME280_pressure;Samples;Min_cycle;Max_cycle;Signal;HPM_P1;HPM_P2
2022/07/12 00:01:45;;;;;;;3.20;2.22;;;16.80;99.90;;;;;;5015566;28;20041;-75
2022/07/12 00:04:11;;;;;;;3.10;2.40;;;16.80;99.90;;;;;;5032062;28;20049;-75
2022/07/12 00:06:37;;;;;;;2.60;2.08;;;16.80;99.90;;;;;;5029062;28;20052;-75
2022/07/12 00:09:03;;;;;;;2.08;1.73;;;16.80;99.90;;;;;;5015497;28;20032;-74
2022/07/12 00:11:29;;;;;;;3.03;2.40;;;16.80;99.90;;;;;;5030721;28;20049;-74
2022/07/12 00:13:55;;;;;;;2.65;2.17;;;16.80;99.90;;;;;;5027999;28;20387;-74
2022/07/12 00:16:21;;;;;;;4.18;2.30;;;16.80;99.90;;;;;;5031350;28;20047;-74
2022/07/12 00:18:47;;;;;;;3.05;2.20;;;16.80;99.90;;;;;;5033065;28;20039;-74
2022/07/12 00:21:13;;;;;;;2.88;2.10;;;16.80;99.90;;;;;;5031739;28;20450;-74
2022/07/12 00:23:38;;;;;;;2.75;2.20;;;16.70;99.90;;;;;;5015333;28;20458;-74
2022/07/12 00:26:04;;;;;;;3.30;2.38;;;16.70;99.90;;;;;;5035070;28;20564;-75
2022/07/12 00:28:33;;;;;;;3.17;2.00;;;16.70;99.90;;;;;;5032717;28;20045;-75
2022/07/12 00:31:00;;;;;;;2.70;2.10;;;16.70;99.90;;;;;;5032035;28;20470;-74
2022/07/12 00:33:25;;;;;;;;;;;16.70;99.90;;;;;;5018392;28;20119;-74
2022/07/12 00:35:51;;;;;;;2.70;2.20;;;16.60;99.90;;;;;;5051179;28;19917;-75
2022/07/12 00:38:17;;;;;;;4.50;2.55;;;16.60;99.90;;;;;;5015446;28;20033;-75
2022/07/12 00:40:43;;;;;;;3.17;2.25;;;16.50;99.90;;;;;;5035985;28;20037;-76
2022/07/12 00:43:08;;;;;;;4.20;2.60;;;16.50;99.90;;;;;;5016900;28;20052;-76
2022/07/12 00:45:34;;;;;;;5.40;2.70;;;16.50;99.90;;;;;;5035529;28;20119;-76
2022/07/12 00:48:00;;;;;;;4.53;2.83;;;16.50;99.90;;;;;;5034060;28;20044;-77
2022/07/12 00:50:26;;;;;;;;;;;16.50;99.90;;;;;;5033938;28;20441;-75
2022/07/12 00:52:54;;;;;;;3.03;2.50;;;16.50;99.90;;;;;;5050144;28;19920;-75
2022/07/12 00:55:21;;;;;;;3.50;2.33;;;16.50;99.90;;;;;;5031802;28;20038;-75
2022/07/12 00:57:47;;;;;;;3.78;2.80;;;16.50;99.90;;;;;;5032033;28;20533;-75
2022/07/12 01:00:20;;;;;;;2.70;2.40;;;16.50;99.90;;;;;;5033314;28;20097;-75
2022/07/12 01:02:46;;;;;;;3.42;2.85;;;16.50;99.90;;;;;;5034542;28;20159;-76
2022/07/12 01:05:13;;;;;;;3.10;2.60;;;16.40;99.90;;;;;;5043262;28;20036;-75
2022/07/12 01:07:39;;;;;;;3.72;2.40;;;16.40;99.90;;;;;;5019830;28;20048;-75
2022/07/12 01:10:06;;;;;;;3.15;2.50;;;16.40;99.90;;;;;;5032247;28;20041;-75
2022/07/12 01:12:33;;;;;;;5.25;2.85;;;16.30;99.90;;;;;;5015500;28;20051;-73
2022/07/12 01:14:59;;;;;;;3.47;2.70;;;16.30;99.90;;;;;;5034483;28;20128;-75
2022/07/12 01:17:25;;;;;;;;;;;16.30;99.90;;;;;;5033844;28;20047;-75
2022/07/12 01:19:54;;;;;;;3.38;2.85;;;16.30;99.90;;;;;;5047894;28;19916;-75
2022/07/12 01:22:25;;;;;;;3.55;2.60;;;16.30;99.90;;;;;;5033948;28;20045;-75
2022/07/12 01:24:50;;;;;;;3.67;2.63;;;16.20;99.90;;;;;;5032778;28;20041;-74
2022/07/12 01:27:16;;;;;;;4.15;2.78;;;16.20;99.90;;;;;;5034335;28;20167;-75
2022/07/12 01:29:42;;;;;;;3.85;3.20;;;16.20;99.90;;;;;;5029846;28;20065;-74
2022/07/12 01:32:24;;;;;;;3.70;3.10;;;16.20;99.90;;;;;;5014760;28;20049;-75
2022/07/12 01:34:54;;;;;;;3.55;3.05;;;16.10;99.90;;;;;;5033457;28;20120;-75
2022/07/12 01:37:21;;;;;;;4.35;3.20;;;16.10;99.90;;;;;;5033159;28;20091;-75
2022/07/12 01:39:50;;;;;;;3.20;2.83;;;16.10;99.90;;;;;;5031603;28;20382;-78
2022/07/12 01:42:16;;;;;;;3.40;2.92;;;16.20;99.90;;;;;;5034250;28;20040;-74
2022/07/12 01:44:42;;;;;;;4.20;2.80;;;16.20;99.90;;;;;;5020348;28;20037;-75
2022/07/12 01:47:07;;;;;;;3.45;2.70;;;16.20;99.90;;;;;;5030970;28;20124;-74
2022/07/12 01:49:33;;;;;;;3.50;2.35;;;16.20;99.90;;;;;;5030925;28;20053;-73
2022/07/12 01:51:59;;;;;;;4.47;2.70;;;16.20;99.90;;;;;;5016159;28;20041;-74
2022/07/12 01:54:25;;;;;;;3.40;2.75;;;16.20;99.90;;;;;;5032705;28;20103;-74
2022/07/12 01:56:52;;;;;;;3.78;3.08;;;16.20;99.90;;;;;;5033987;28;20047;-75
2022/07/12 01:59:18;;;;;;;3.92;3.47;;;16.20;99.90;;;;;;5013649;28;20079;-74
2022/07/12 02:01:45;;;;;;;4.03;3.40;;;16.20;99.90;;;;;;5014198;28;20037;-75
2022/07/12 02:04:11;;;;;;;3.40;2.88;;;16.20;99.90;;;;;;5031883;28;20041;-74
2022/07/12 02:06:38;;;;;;;5.57;3.58;;;16.20;99.90;;;;;;5032833;28;20100;-75
2022/07/12 02:09:04;;;;;;;4.95;3.85;;;16.10;99.90;;;;;;5030791;28;20040;-74
2022/07/12 02:11:31;;;;;;;5.03;3.75;;;16.20;99.90;;;;;;5031870;28;20374;-74
2022/07/12 02:13:57;;;;;;;4.18;3.65;;;16.10;99.90;;;;;;5014934;28;20110;-75
2022/07/12 02:16:22;;;;;;;5.35;3.90;;;16.10;99.90;;;;;;5033774;28;20049;-75
2022/07/12 02:18:48;;;;;;;5.05;4.32;;;16.10;99.90;;;;;;5014872;28;20049;-74
2022/07/12 02:21:14;;;;;;;5.60;3.97;;;16.10;99.90;;;;;;5030528;28;20045;-75
2022/07/12 02:23:39;;;;;;;5.15;3.95;;;16.10;99.90;;;;;;5030918;28;20025;-75
2022/07/12 02:26:05;;;;;;;6.18;4.18;;;16.10;99.90;;;;;;4998388;28;20371;-75
2022/07/12 02:28:31;;;;;;;4.70;3.80;;;16.10;99.90;;;;;;5032003;28;20053;-75
2022/07/12 02:30:57;;;;;;;6.03;4.82;;;16.00;99.90;;;;;;5000270;28;20048;-74
2022/07/12 02:33:23;;;;;;;4.80;4.15;;;16.10;99.90;;;;;;5032916;28;20124;-75
2022/07/12 02:35:49;;;;;;;4.13;3.72;;;16.00;99.90;;;;;;5016839;28;20049;-75
2022/07/12 02:38:14;;;;;;;4.85;4.15;;;16.00;99.90;;;;;;5012934;28;20048;-74
2022/07/12 02:40:55;;;;;;;5.03;4.20;;;15.90;99.90;;;;;;5029677;28;20037;-74
2022/07/12 02:43:21;;;;;;;5.38;4.45;;;15.90;99.90;;;;;;5032725;28;20087;-75
2022/07/12 02:45:47;;;;;;;;;;;15.90;99.90;;;;;;5032538;28;20036;-74
2022/07/12 02:48:13;;;;;;;6.07;4.70;;;15.90;99.90;;;;;;5031760;28;20261;-74
2022/07/12 02:50:39;;;;;;;5.18;4.38;;;15.90;99.90;;;;;;5032973;28;20090;-75
2022/07/12 02:53:09;;;;;;;5.88;4.38;;;15.90;99.90;;;;;;5032366;28;20033;-74
2022/07/12 02:55:35;;;;;;;4.45;3.92;;;15.90;99.90;;;;;;5015470;28;20051;-75
2022/07/12 02:58:01;;;;;;;5.22;4.45;;;15.90;99.90;;;;;;5032202;28;20350;-74
2022/07/12 03:00:28;;;;;;;6.63;5.07;;;15.90;99.90;;;;;;5030765;28;20040;-74
2022/07/12 03:02:54;;;;;;;9.00;5.57;;;15.90;99.90;;;;;;5029414;28;20045;-74
2022/07/12 03:05:19;;;;;;;6.60;4.80;;;15.90;99.90;;;;;;5030045;28;20481;-75
2022/07/12 03:07:45;;;;;;;7.13;5.30;;;15.90;99.90;;;;;;5030784;28;20042;-75
2022/07/12 03:10:11;;;;;;;7.40;5.97;;;15.80;99.90;;;;;;5030176;28;20098;-75
2022/07/12 03:12:37;;;;;;;8.52;6.13;;;15.80;99.90;;;;;;5031820;28;20581;-74
2022/07/12 03:15:05;;;;;;;8.95;6.43;;;15.80;99.90;;;;;;5029873;28;20478;-75
2022/07/12 03:17:31;;;;;;;13.57;6.47;;;15.80;99.90;;;;;;5029097;28;20041;-74
2022/07/12 03:19:56;;;;;;;9.57;6.88;;;15.80;99.90;;;;;;5014517;28;20040;-74
2022/07/12 03:22:22;;;;;;;9.48;7.40;;;15.80;99.90;;;;;;5012382;28;20034;-74
2022/07/12 03:24:48;;;;;;;13.77;7.25;;;15.70;99.90;;;;;;5031997;28;20079;-74
2022/07/12 03:27:13;;;;;;;49.10;8.85;;;15.80;99.90;;;;;;5031156;28;20116;-74
2022/07/12 03:29:39;;;;;;;131.60;10.23;;;15.80;99.90;;;;;;5014719;28;20102;-75
2022/07/12 03:32:06;;;;;;;25.45;7.18;;;15.70;99.90;;;;;;5030026;28;20469;-75
2022/07/12 03:34:32;;;;;;;15.82;6.97;;;15.70;99.90;;;;;;5016339;28;20041;-75
2022/07/12 03:36:58;;;;;;;66.63;7.82;;;15.60;99.90;;;;;;5031563;28;20080;-75
2022/07/12 03:39:24;;;;;;;43.13;7.63;;;15.60;99.90;;;;;;5032217;28;20095;-75
2022/07/12 03:41:50;;;;;;;;;;;15.50;99.90;;;;;;5032846;28;20107;-75
2022/07/12 03:44:16;;;;;;;24.17;6.63;;;15.50;99.90;;;;;;5015064;28;19917;-74
2022/07/12 03:46:41;;;;;;;48.05;7.60;;;15.50;99.90;;;;;;5012584;28;20041;-75
2022/07/12 03:49:07;;;;;;;148.07;10.50;;;15.40;99.90;;;;;;5028714;28;20481;-74
2022/07/12 03:51:33;;;;;;;34.72;6.65;;;15.50;99.90;;;;;;5014719;28;20136;-74
2022/07/12 03:53:58;;;;;;;29.60;6.25;;;15.50;99.90;;;;;;5035112;28;20098;-75
2022/07/12 03:59:08;;;;;;;36.42;6.80;;;15.40;99.90;;;;;;5033243;28;20056;-74
2022/07/12 04:01:34;;;;;;;17.50;5.95;;;15.50;99.90;;;;;;5036170;28;20033;-74
2022/07/12 04:04:00;;;;;;;29.30;6.53;;;15.50;99.90;;;;;;5034403;28;20041;-74
2022/07/12 04:06:25;;;;;;;26.55;6.13;;;15.50;99.90;;;;;;5034609;28;20037;-74
2022/07/12 04:08:51;;;;;;;36.53;6.68;;;15.50;99.90;;;;;;5019712;28;20036;-74
2022/07/12 04:11:17;;;;;;;41.80;7.57;;;15.40;99.90;;;;;;5032167;28;20088;-74
2022/07/12 04:13:42;;;;;;;202.93;11.88;;;15.50;99.90;;;;;;5016314;28;20058;-74
2022/07/12 04:16:08;;;;;;;40.20;7.25;;;15.50;99.90;;;;;;5035329;28;20044;-75
2022/07/12 04:18:34;;;;;;;90.03;8.18;;;15.50;99.90;;;;;;5016542;28;20402;-75
2022/07/12 04:20:59;;;;;;;85.40;7.45;;;15.50;99.90;;;;;;5035357;28;20049;-75
2022/07/12 04:23:25;;;;;;;71.97;7.90;;;15.50;99.90;;;;;;5015710;28;20041;-75
2022/07/12 04:25:51;;;;;;;46.92;7.45;;;15.50;99.90;;;;;;5033818;28;20032;-76
2022/07/12 04:28:17;;;;;;;44.92;7.05;;;15.40;99.90;;;;;;5014461;28;20415;-76
2022/07/12 04:30:44;;;;;;;111.60;8.90;;;15.40;99.90;;;;;;5031459;28;20041;-75
2022/07/12 04:33:10;;;;;;;25.20;5.93;;;15.40;99.90;;;;;;5034304;28;20120;-75
2022/07/12 04:35:37;;;;;;;37.28;5.82;;;15.40;99.90;;;;;;5032310;28;20041;-76
2022/07/12 04:38:03;;;;;;;;;;;15.40;99.90;;;;;;5035782;28;20099;-76
2022/07/12 04:40:28;;;;;;;26.92;5.72;;;15.50;99.90;;;;;;5034545;28;19921;-77
2022/07/12 04:42:54;;;;;;;34.92;5.80;;;15.50;99.90;;;;;;5035747;28;20040;-77
2022/07/12 04:45:20;;;;;;;20.15;5.68;;;15.50;99.90;;;;;;5034558;28;20043;-75
2022/07/12 04:47:45;;;;;;;37.95;6.68;;;15.50;99.90;;;;;;5032550;28;20099;-78
2022/07/12 04:50:12;;;;;;;22.67;6.07;;;15.50;99.90;;;;;;5016085;28;20045;-77
2022/07/12 04:52:37;;;;;;;7.35;5.10;;;15.50;99.90;;;;;;5034936;28;20123;-76
2022/07/12 04:55:04;;;;;;;7.45;5.40;;;15.50;99.90;;;;;;5032240;28;20042;-78
2022/07/12 04:57:30;;;;;;;14.02;5.85;;;15.60;99.90;;;;;;5017955;28;20053;-77
2022/07/12 04:59:56;;;;;;;14.25;5.18;;;15.60;99.90;;;;;;5034880;28;20108;-78
2022/07/12 05:02:21;;;;;;;10.68;5.22;;;15.60;99.90;;;;;;5032580;28;20033;-78
2022/07/12 05:04:47;;;;;;;10.30;5.57;;;15.50;99.90;;;;;;5017334;28;20375;-77
2022/07/12 05:07:13;;;;;;;17.38;5.85;;;15.50;99.90;;;;;;5016985;28;20508;-78
2022/07/12 05:09:38;;;;;;;12.00;5.65;;;15.50;99.90;;;;;;5016997;28;20072;-77
2022/07/12 05:12:05;;;;;;;13.73;5.78;;;15.40;99.90;;;;;;5034859;28;20055;-78
2022/07/12 05:14:31;;;;;;;17.70;6.03;;;15.50;99.90;;;;;;5032224;28;20065;-77
2022/07/12 05:16:57;;;;;;;20.95;6.82;;;15.50;99.90;;;;;;5033227;28;20060;-78
2022/07/12 05:19:23;;;;;;;22.50;6.93;;;15.50;99.90;;;;;;5015417;28;20112;-78
2022/07/12 05:21:49;;;;;;;24.17;7.10;;;15.60;99.90;;;;;;5017554;28;20038;-77
2022/07/12 05:24:15;;;;;;;15.73;6.40;;;15.60;99.90;;;;;;5033225;28;20051;-77
2022/07/12 05:26:41;;;;;;;31.08;7.15;;;15.60;99.90;;;;;;5032874;28;20041;-78
2022/07/12 05:29:07;;;;;;;15.55;7.22;;;15.70;99.90;;;;;;5016016;28;20034;-79
2022/07/12 05:31:32;;;;;;;9.20;5.97;;;15.70;99.90;;;;;;5018520;28;20044;-77
2022/07/12 05:33:58;;;;;;;8.55;6.15;;;15.80;99.90;;;;;;5033010;28;20459;-79
2022/07/12 05:36:24;;;;;;;7.20;5.18;;;15.80;99.90;;;;;;5035094;28;20044;-77
2022/07/12 05:38:50;;;;;;;6.97;5.20;;;15.90;99.90;;;;;;5033668;28;20086;-77
2022/07/12 05:41:16;;;;;;;6.25;5.07;;;15.90;99.90;;;;;;5032591;28;20099;-77
2022/07/12 05:43:41;;;;;;;5.68;4.60;;;16.10;99.90;;;;;;5016418;28;20045;-78
2022/07/12 05:46:08;;;;;;;5.88;4.20;;;16.20;99.90;;;;;;5032079;28;20040;-78
2022/07/12 05:48:34;;;;;;;6.07;4.15;;;16.20;99.90;;;;;;5033698;28;20050;-77
2022/07/12 05:53:21;;;;;;;4.85;4.15;;;16.30;99.90;;;;;;5018144;28;20037;-78
2022/07/12 05:53:46;;;;;;;4.82;3.80;;;16.40;99.90;;;;;;5033064;28;20045;-78
2022/07/12 05:56:12;;;;;;;4.00;3.40;;;16.50;99.90;;;;;;5015598;28;20036;-77
2022/07/12 05:58:38;;;;;;;5.25;3.88;;;16.60;99.90;;;;;;5033912;28;20097;-77
2022/07/12 06:01:03;;;;;;;4.68;3.83;;;16.70;99.90;;;;;;5031723;28;20117;-78
2022/07/12 06:03:29;;;;;;;4.60;3.80;;;16.80;99.90;;;;;;5021741;28;20046;-77
2022/07/12 06:05:55;;;;;;;5.78;3.40;;;16.80;99.90;;;;;;5034221;28;20175;-77
2022/07/12 06:08:20;;;;;;;4.40;3.65;;;16.90;99.90;;;;;;5015350;28;20072;-78
2022/07/12 06:10:46;;;;;;;5.15;3.80;;;16.90;99.90;;;;;;5020219;28;20060;-77
2022/07/12 06:13:12;;;;;;;4.13;3.40;;;17.00;99.90;;;;;;5017304;28;20068;-78
2022/07/12 06:15:37;;;;;;;5.22;3.63;;;17.10;99.90;;;;;;5035601;28;20048;-78
2022/07/12 06:18:03;;;;;;;5.05;3.08;;;17.10;99.90;;;;;;5034100;28;20069;-77
2022/07/12 06:20:29;;;;;;;4.05;3.22;;;17.20;99.90;;;;;;5039697;28;20037;-76
2022/07/12 06:22:56;;;;;;;4.25;3.03;;;17.30;99.90;;;;;;5039216;28;20029;-77
2022/07/12 06:25:23;;;;;;;5.40;3.50;;;17.30;99.90;;;;;;5037715;28;20087;-78
2022/07/12 06:27:49;;;;;;;4.22;3.15;;;17.40;99.90;;;;;;5033370;28;20481;-78
2022/07/12 06:30:19;;;;;;;3.80;3.03;;;17.50;99.90;;;;;;5016660;28;20041;-78
2022/07/12 06:32:48;;;;;;;3.80;3.00;;;17.60;99.90;;;;;;5032516;28;20052;-78
2022/07/12 06:35:15;;;;;;;3.13;2.75;;;17.60;99.90;;;;;;5031425;28;20390;-78
2022/07/12 06:37:41;;;;;;;3.60;2.67;;;17.70;99.90;;;;;;5032392;28;20504;-78
2022/07/12 06:40:08;;;;;;;3.53;2.85;;;17.90;99.90;;;;;;5031868;28;20408;-79
2022/07/12 06:42:34;;;;;;;4.70;2.70;;;18.10;99.90;;;;;;5005333;28;20045;-78
2022/07/12 06:45:00;;;;;;;;;;;18.30;99.90;;;;;;5034967;28;20048;-76
2022/07/12 06:47:26;;;;;;;3.38;2.65;;;18.50;99.90;;;;;;5031657;28;20272;-78
2022/07/12 06:49:52;;;;;;;4.65;2.80;;;18.50;99.90;;;;;;5031769;28;20099;-77
2022/07/12 06:52:17;;;;;;;3.50;2.75;;;18.60;99.90;;;;;;5031250;28;20073;-77
2022/07/12 06:54:43;;;;;;;3.20;2.33;;;18.70;99.90;;;;;;5031998;28;20040;-77
2022/07/12 06:57:09;;;;;;;3.20;1.95;;;18.90;99.90;;;;;;5032942;28;20482;-78
2022/07/12 06:59:35;;;;;;;2.58;1.90;;;19.10;99.90;;;;;;5031694;28;20088;-78
2022/07/12 07:02:01;;;;;;;3.13;2.17;;;19.30;99.90;;;;;;5031990;28;20044;-78
2022/07/12 07:04:27;;;;;;;3.15;2.30;;;19.50;99.90;;;;;;5030831;28;20041;-78
2022/07/12 07:06:52;;;;;;;3.80;2.10;;;19.80;99.90;;;;;;5033652;28;20124;-77
2022/07/12 07:09:18;;;;;;;3.13;1.83;;;19.90;99.90;;;;;;5019487;28;20103;-78
2022/07/12 07:11:44;;;;;;;2.75;1.90;;;20.30;99.90;;;;;;5032654;28;20045;-78
2022/07/12 07:14:10;;;;;;;;;;;20.40;99.90;;;;;;5033493;28;20061;-77
2022/07/12 07:16:36;;;;;;;2.63;1.95;;;20.90;99.90;;;;;;5052084;28;20360;-77
2022/07/12 07:19:02;;;;;;;2.20;1.70;;;21.30;99.90;;;;;;5015353;28;20037;-77
2022/07/12 07:21:28;;;;;;;2.40;1.70;;;21.80;99.90;;;;;;5029995;28;20041;-77
2022/07/12 07:23:55;;;;;;;2.00;1.60;;;22.10;99.90;;;;;;5032931;28;20037;-77
2022/07/12 07:26:21;;;;;;;2.63;2.00;;;22.10;99.90;;;;;;5038908;28;20028;-76
2022/07/12 07:31:36;;;;;;;2.40;1.50;;;22.60;99.90;;;;;;5029538;28;20061;-78
2022/07/12 07:34:02;;;;;;;2.08;1.42;;;22.80;99.90;;;;;;5034124;28;20516;-75
2022/07/12 07:36:28;;;;;;;2.70;1.73;;;23.00;99.90;;;;;;5005487;28;20126;-78
2022/07/12 07:38:53;;;;;;;;;;;23.20;99.90;;;;;;5016608;28;20046;-78
2022/07/12 07:41:19;;;;;;;2.38;1.50;;;23.20;99.90;;;;;;5049522;28;19927;-76
2022/07/12 07:43:45;;;;;;;;;;;23.20;99.90;;;;;;5037965;28;20040;-78
2022/07/12 07:46:10;;;;;;;2.47;1.65;;;23.30;99.90;;;;;;5031680;28;19975;-78
2022/07/12 07:48:36;;;;;;;;;;;23.40;99.90;;;;;;5031158;28;20087;-77
2022/07/12 07:51:02;;;;;;;2.95;1.90;;;23.50;99.90;;;;;;5029973;28;19921;-77
2022/07/12 07:53:27;;;;;;;;;;;23.80;99.90;;;;;;5031873;28;20052;-78
2022/07/12 07:55:53;;;;;;;2.95;1.52;;;23.90;99.90;;;;;;5031272;28;19923;-77
2022/07/12 07:58:20;;;;;;;;;;;24.00;99.90;;;;;;5030433;28;20175;-78
2022/07/12 08:00:46;;;;;;;2.22;1.63;;;23.90;99.90;;;;;;5015104;28;20408;-78
2022/07/12 08:03:13;;;;;;;2.33;1.70;;;23.90;99.90;;;;;;5033759;28;20029;-79
2022/07/12 08:05:38;;;;;;;2.22;1.70;;;24.10;99.90;;;;;;5029893;28;20041;-77
2022/07/12 08:08:04;;;;;;;1.95;1.50;;;24.20;99.90;;;;;;5030675;28;20064;-79
2022/07/12 08:10:30;;;;;;;;;;;24.20;99.90;;;;;;5029888;28;20056;-78
2022/07/12 08:12:56;;;;;;;2.35;1.67;;;24.30;99.90;;;;;;5031642;28;19929;-77
2022/07/12 08:15:21;;;;;;;;;;;24.20;99.90;;;;;;5032217;28;20101;-78
2022/07/12 08:17:47;;;;;;;3.30;1.70;;;24.20;99.90;;;;;;5049473;28;19944;-78
2022/07/12 08:20:12;;;;;;;2.00;1.50;;;24.40;99.90;;;;;;5014078;28;20091;-79
2022/07/12 08:22:45;;;;;;;2.95;1.92;;;24.60;99.90;;;;;;5020283;28;20090;-78
2022/07/12 08:25:12;;;;;;;2.42;1.42;;;24.70;99.90;;;;;;5013713;28;20124;-77
2022/07/12 08:27:38;;;;;;;1.90;1.40;;;24.70;99.90;;;;;;5013404;28;20116;-78
2022/07/12 08:30:04;;;;;;;2.17;1.70;;;24.80;99.90;;;;;;5031066;28;20125;-77
2022/07/12 08:32:30;;;;;;;2.85;1.67;;;24.60;99.90;;;;;;5001747;28;20083;-78
2022/07/12 08:34:55;;;;;;;3.63;1.70;;;24.60;99.90;;;;;;5029429;28;20073;-78
2022/07/12 08:37:21;;;;;;;;;;;24.50;99.90;;;;;;5031300;28;20042;-77
2022/07/12 08:39:47;;;;;;;2.60;1.88;;;24.60;99.90;;;;;;5034182;28;19952;-78
2022/07/12 08:42:16;;;;;;;2.00;1.58;;;24.70;99.90;;;;;;5033577;28;20409;-78
2022/07/12 08:44:42;;;;;;;3.38;1.67;;;24.70;99.90;;;;;;5016497;28;20091;-77
2022/07/12 08:47:08;;;;;;;2.47;1.83;;;24.70;99.90;;;;;;5036108;28;20052;-78
2022/07/12 08:49:35;;;;;;;2.85;1.40;;;24.70;99.90;;;;;;5033483;28;20041;-78
2022/07/12 08:52:25;;;;;;;2.63;1.50;;;24.70;99.90;;;;;;5038316;28;20128;-78
2022/07/12 08:54:52;;;;;;;1.83;1.63;;;24.80;99.90;;;;;;5035077;28;20049;-78
2022/07/12 08:57:31;;;;;;;2.40;1.40;;;25.00;99.90;;;;;;5019240;28;20110;-78
2022/07/12 09:00:01;;;;;;;2.10;1.60;;;25.20;99.90;;;;;;5049539;28;20052;-78
2022/07/12 09:02:27;;;;;;;2.15;1.70;;;25.50;99.90;;;;;;5018213;28;20049;-78
2022/07/12 09:05:09;;;;;;;2.28;1.60;;;25.80;99.90;;;;;;5016335;28;20041;-79
2022/07/12 09:07:36;;;;;;;2.45;1.67;;;26.00;99.90;;;;;;5034422;28;20044;-77
2022/07/12 09:10:09;;;;;;;3.00;1.60;;;26.20;99.90;;;;;;5034661;28;20138;-77
2022/07/12 09:12:36;;;;;;;1.83;1.48;;;26.30;99.90;;;;;;5017191;28;20049;-77
2022/07/12 09:15:19;;;;;;;2.75;1.60;;;26.20;99.90;;;;;;5017006;28;20060;-77
2022/07/12 09:18:00;;;;;;;2.38;1.60;;;26.30;99.90;;;;;;5031196;28;20060;-77
2022/07/12 09:20:34;;;;;;;2.42;2.13;;;26.40;99.90;;;;;;5032234;28;20474;-77
2022/07/12 09:23:06;;;;;;;2.20;1.75;;;26.20;99.90;;;;;;5030665;28;20091;-77
2022/07/12 09:25:33;;;;;;;4.15;1.75;;;26.40;99.90;;;;;;5015346;28;20038;-77
2022/07/12 09:28:02;;;;;;;3.67;1.77;;;26.50;99.90;;;;;;5032788;28;20046;-78
2022/07/12 09:30:29;;;;;;;3.92;2.30;;;26.50;99.90;;;;;;5033439;28;20061;-76
2022/07/12 09:36:08;;;;;;;2.60;1.90;;;26.40;99.90;;;;;;5035607;28;20048;-78
2022/07/12 09:38:38;;;;;;;2.95;1.70;;;26.40;99.90;;;;;;5031083;28;20370;-78
2022/07/12 09:41:05;;;;;;;2.95;2.20;;;26.40;99.90;;;;;;5035152;28;20494;-77
2022/07/12 09:43:31;;;;;;;3.53;1.88;;;26.40;99.90;;;;;;5033809;28;20036;-77
2022/07/12 09:45:58;;;;;;;3.08;2.00;;;26.30;99.90;;;;;;5017257;28;20440;-77
2022/07/12 09:48:27;;;;;;;3.63;1.58;;;26.20;99.90;;;;;;5032348;28;20032;-77
2022/07/12 09:50:54;;;;;;;3.83;1.90;;;26.50;99.90;;;;;;5032682;28;20052;-77
2022/07/12 09:53:26;;;;;;;2.10;1.90;;;26.80;99.90;;;;;;5033463;28;20120;-78
2022/07/12 09:55:52;;;;;;;4.97;2.05;;;27.10;99.90;;;;;;5014376;28;20033;-78
2022/07/12 09:58:31;;;;;;;2.67;1.80;;;27.30;99.90;;;;;;5031254;28;20382;-77
2022/07/12 10:01:02;;;;;;;1.85;1.50;;;27.60;99.90;;;;;;5041474;28;20040;-76
2022/07/12 10:03:31;;;;;;;2.13;1.50;;;28.00;99.90;;;;;;5032798;28;20473;-77
2022/07/12 10:06:01;;;;;;;1.75;1.48;;;28.20;99.90;;;;;;5037544;28;20500;-76
2022/07/12 10:08:28;;;;;;;2.47;1.38;;;28.50;99.90;;;;;;5032524;28;20046;-77
2022/07/12 10:10:54;;;;;;;2.05;1.50;;;28.70;99.90;;;;;;5018346;28;20045;-77
2022/07/12 10:13:20;;;;;;;2.70;1.70;;;28.90;99.90;;;;;;5015167;28;20053;-77
2022/07/12 10:15:48;;;;;;;1.70;1.33;;;29.00;99.90;;;;;;5035832;28;20041;-77
2022/07/12 10:18:21;;;;;;;2.67;1.30;;;29.20;99.90;;;;;;5032869;28;20104;-77
2022/07/12 10:20:48;;;;;;;2.15;1.00;;;29.30;99.90;;;;;;5030345;28;20033;-77
2022/07/12 10:23:27;;;;;;;1.55;0.90;;;29.40;99.90;;;;;;5015926;28;20072;-77
2022/07/12 10:25:53;;;;;;;0.60;0.50;;;29.40;99.90;;;;;;5031465;28;20493;-77
2022/07/12 10:28:19;;;;;;;1.35;0.75;;;29.60;99.90;;;;;;5035269;28;20045;-77
2022/07/12 10:30:47;;;;;;;0.95;0.52;;;29.70;99.90;;;;;;5015336;28;20393;-77
2022/07/12 10:33:22;;;;;;;1.15;0.60;;;29.70;99.90;;;;;;5031602;28;20040;-77
2022/07/12 10:36:01;;;;;;;1.35;0.50;;;29.80;99.90;;;;;;5031754;28;20045;-78
2022/07/12 10:38:27;;;;;;;1.27;0.50;;;29.90;99.90;;;;;;5031895;28;20050;-78
2022/07/12 10:40:53;;;;;;;1.52;0.50;;;30.10;99.90;;;;;;5014752;28;20049;-77
2022/07/12 10:44:04;;;;;;;0.70;0.43;;;30.10;99.90;;;;;;5031541;28;20033;-78
2022/07/12 10:46:27;;;;;;;0.65;0.45;;;30.20;99.90;;;;;;5032041;28;20083;-76
2022/07/12 10:49:29;;;;;;;1.52;0.50;;;30.20;99.90;;;;;;5032029;28;20041;-78
2022/07/12 10:52:10;;;;;;;1.33;0.50;;;30.40;99.90;;;;;;5016370;28;20465;-78
2022/07/12 10:54:39;;;;;;;0.95;0.60;;;30.50;99.90;;;;;;5030275;28;20728;-78
2022/07/12 10:57:05;;;;;;;0.70;0.50;;;30.50;99.90;;;;;;5031886;28;20381;-78
2022/07/12 10:59:37;;;;;;;0.82;0.30;;;30.50;99.90;;;;;;5032199;28;20048;-77
2022/07/12 11:02:05;;;;;;;1.85;0.40;;;30.50;99.90;;;;;;5030962;28;20113;-77
2022/07/12 11:04:30;;;;;;;1.15;0.40;;;30.50;99.70;;;;;;5014373;28;20041;-76
2022/07/12 11:07:01;;;;;;;0.60;0.40;;;30.50;99.70;;;;;;5020775;28;20043;-77
2022/07/12 11:09:28;;;;;;;0.95;0.38;;;30.40;99.90;;;;;;5031550;28;20041;-77
2022/07/12 11:11:54;;;;;;;0.93;0.50;;;30.30;99.90;;;;;;5032371;28;20055;-77
2022/07/12 11:14:24;;;;;;;0.73;0.40;;;30.10;99.90;;;;;;5030803;28;20045;-77
2022/07/12 11:16:52;;;;;;;2.22;0.38;;;30.10;99.90;;;;;;5013324;28;20059;-77
2022/07/12 11:19:24;;;;;;;1.42;0.40;;;30.00;99.90;;;;;;5031172;28;20037;-77
2022/07/12 11:21:58;;;;;;;2.25;0.85;;;30.00;99.90;;;;;;5032918;28;20044;-76
2022/07/12 11:24:31;;;;;;;1.40;0.40;;;29.90;99.90;;;;;;5036266;28;20069;-78
2022/07/12 11:26:59;;;;;;;0.50;0.28;;;29.80;99.50;;;;;;5028192;28;20091;-77
2022/07/12 11:29:25;;;;;;;1.75;0.50;;;29.70;99.60;;;;;;5032262;28;20033;-78
2022/07/12 11:32:01;;;;;;;0.47;0.40;;;29.60;99.40;;;;;;5030789;28;20129;-77
2022/07/12 11:34:27;;;;;;;0.30;0.20;;;29.70;98.10;;;;;;5030653;28;20498;-76
2022/07/12 11:36:57;;;;;;;0.85;0.30;;;29.70;99.20;;;;;;4998092;28;20037;-76
2022/07/12 11:39:50;;;;;;;0.90;0.30;;;30.00;99.40;;;;;;5017832;28;20036;-78
2022/07/12 11:42:16;;;;;;;1.88;0.70;;;30.20;98.60;;;;;;5028654;28;20120;-77
2022/07/12 11:44:46;;;;;;;2.00;0.65;;;30.50;99.40;;;;;;5015562;28;20121;-77
2022/07/12 11:47:12;;;;;;;1.00;0.80;;;30.70;99.70;;;;;;5030640;28;20405;-77
2022/07/12 11:49:46;;;;;;;1.30;0.60;;;31.00;99.50;;;;;;5030906;28;20052;-76
2022/07/12 11:52:17;;;;;;;1.52;0.60;;;31.20;99.20;;;;;;5034077;28;20081;-76
2022/07/12 11:54:44;;;;;;;1.70;0.50;;;31.30;98.10;;;;;;5026954;28;20056;-77
2022/07/12 11:57:11;;;;;;;1.17;0.40;;;31.30;98.70;;;;;;5029285;28;20124;-76
2022/07/12 11:59:37;;;;;;;0.40;0.28;;;31.30;98.10;;;;;;5031576;28;20045;-77
2022/07/12 12:02:03;;;;;;;1.67;0.40;;;31.40;98.20;;;;;;5029542;28;20064;-75
2022/07/12 12:04:29;;;;;;;1.20;0.45;;;31.50;97.60;;;;;;5030656;28;20480;-77
2022/07/12 12:06:54;;;;;;;3.10;0.50;;;31.70;98.20;;;;;;4999085;28;20049;-76
2022/07/12 12:09:20;;;;;;;1.15;0.35;;;31.70;98.20;;;;;;5014664;28;20029;-75
2022/07/12 12:11:46;;;;;;;1.90;0.45;;;31.90;97.30;;;;;;5014370;28;20090;-77
2022/07/12 12:14:12;;;;;;;0.60;0.28;;;32.00;97.40;;;;;;5015031;28;20099;-77
2022/07/12 12:16:38;;;;;;;0.75;0.40;;;32.20;96.10;;;;;;5032726;28;20045;-76
2022/07/12 12:19:10;;;;;;;0.65;0.30;;;32.40;96.90;;;;;;5034867;28;20033;-76
2022/07/12 12:21:36;;;;;;;9.77;0.68;;;32.50;96.30;;;;;;5034107;28;20397;-75
2022/07/12 12:24:11;;;;;;;2.42;0.40;;;32.50;95.40;;;;;;5018298;28;20030;-76
2022/07/12 12:26:37;;;;;;;1.48;0.40;;;32.20;95.10;;;;;;5030622;28;20069;-75
2022/07/12 12:29:03;;;;;;;1.48;0.30;;;31.90;95.60;;;;;;5023034;28;20565;-76
2022/07/12 12:31:28;;;;;;;2.05;0.40;;;31.70;95.60;;;;;;5018398;28;20107;-76
2022/07/12 12:33:58;;;;;;;0.90;0.55;;;31.70;95.90;;;;;;5034927;28;20497;-76
2022/07/12 12:36:24;;;;;;;1.08;0.50;;;31.80;95.50;;;;;;5033831;28;20041;-76
2022/07/12 12:38:55;;;;;;;1.40;0.63;;;31.50;96.30;;;;;;5033246;28;20045;-76
2022/07/12 12:41:24;;;;;;;2.05;0.47;;;31.80;96.10;;;;;;5036007;28;20469;-76
2022/07/12 12:44:07;;;;;;;1.23;0.43;;;31.80;95.90;;;;;;5032911;28;20120;-76
2022/07/12 12:46:46;;;;;;;1.40;0.40;;;31.80;96.10;;;;;;5033036;28;20525;-76
2022/07/12 12:49:11;;;;;;;2.13;0.47;;;31.80;96.40;;;;;;5031856;28;20092;-77
2022/07/12 12:51:54;;;;;;;1.05;0.30;;;31.90;96.20;;;;;;5033774;28;20049;-77
2022/07/12 12:54:37;;;;;;;0.98;0.38;;;32.10;95.40;;;;;;5032828;28;20385;-76
2022/07/12 12:57:04;;;;;;;1.30;0.38;;;32.20;95.60;;;;;;5032477;28;20053;-76
2022/07/12 12:59:30;;;;;;;0.90;0.50;;;32.10;95.20;;;;;;5018742;28;20045;-76